N624ML SCTB-SCIR
Flight info
| Callsign | N624ML |
|---|---|
| Flight time | 1h 58m |
| Altitude | 24000 |
| Route | PARKE8 AMB TELAG T118 GERKI |
| Aircraft | PC12/L-G/C |
Departure
| Time | 2026-04-23 21:52 |
|---|---|
| Airport | Eulogio Sánchez Airport (SCTB) |
Arrival
| Time | 2026-04-23 23:50 |
|---|---|
| Airport | Robinson Crusoe Airport (SCIR) |
| Time | Latitude | Longitude | Altitude | Speed | Heading |
|---|---|---|---|---|---|
| 2026-04-23 21:41 | -33.45401 | -70.54730 | 2214 ft | 0 kts | 282° |
| 2026-04-23 21:47 | -33.45379 | -70.54742 | 2215 ft | 3 kts | 25° |
| 2026-04-23 21:48 | -33.45363 | -70.54727 | 2217 ft | 1 kts | 48° |
| 2026-04-23 21:48 | -33.45354 | -70.54710 | 2219 ft | 2 kts | 80° |
| 2026-04-23 21:48 | -33.45337 | -70.54683 | 2222 ft | 6 kts | 15° |
| 2026-04-23 21:48 | -33.45288 | -70.54671 | 2225 ft | 7 kts | 12° |
| 2026-04-23 21:49 | -33.45227 | -70.54655 | 2229 ft | 10 kts | 13° |
| 2026-04-23 21:49 | -33.45152 | -70.54634 | 2234 ft | 11 kts | 18° |
| 2026-04-23 21:49 | -33.45121 | -70.54587 | 2238 ft | 0 kts | 98° |
| 2026-04-23 21:50 | -33.45122 | -70.54578 | 2239 ft | 4 kts | 99° |
| 2026-04-23 21:50 | -33.45145 | -70.54537 | 2241 ft | 6 kts | 193° |
| 2026-04-23 21:51 | -33.45158 | -70.54541 | 2240 ft | 2 kts | 188° |
| 2026-04-23 21:51 | -33.45322 | -70.54581 | 2230 ft | 66 kts | 191° |
| 2026-04-23 21:51 | -33.45978 | -70.54764 | 2296 ft | 112 kts | 189° |
| 2026-04-23 21:51 | -33.46806 | -70.54948 | 2419 ft | 139 kts | 189° |
| 2026-04-23 21:52 | -33.47787 | -70.55186 | 2756 ft | 149 kts | 190° |
| 2026-04-23 21:52 | -33.48814 | -70.55615 | 3059 ft | 166 kts | 219° |
| 2026-04-23 21:52 | -33.49362 | -70.56838 | 3404 ft | 177 kts | 265° |
| 2026-04-23 21:52 | -33.49013 | -70.58245 | 3750 ft | 186 kts | 307° |
| 2026-04-23 21:53 | -33.48136 | -70.59431 | 4120 ft | 193 kts | 308° |
| 2026-04-23 21:53 | -33.47424 | -70.60793 | 4485 ft | 199 kts | 298° |
| 2026-04-23 21:53 | -33.46848 | -70.62324 | 4852 ft | 203 kts | 292° |
| 2026-04-23 21:53 | -33.46352 | -70.63905 | 5217 ft | 206 kts | 290° |
| 2026-04-23 21:54 | -33.45875 | -70.65543 | 5574 ft | 208 kts | 289° |
| 2026-04-23 21:54 | -33.45392 | -70.67181 | 5923 ft | 210 kts | 291° |
| 2026-04-23 21:54 | -33.44897 | -70.68822 | 6274 ft | 210 kts | 291° |
| 2026-04-23 21:54 | -33.44404 | -70.70447 | 6631 ft | 210 kts | 291° |
| 2026-04-23 21:55 | -33.43900 | -70.72102 | 7002 ft | 210 kts | 291° |
| 2026-04-23 21:55 | -33.43404 | -70.73737 | 7369 ft | 209 kts | 291° |
| 2026-04-23 21:55 | -33.42905 | -70.75375 | 7729 ft | 208 kts | 291° |
| 2026-04-23 21:55 | -33.42498 | -70.77020 | 8094 ft | 209 kts | 273° |
| 2026-04-23 21:56 | -33.43032 | -70.78584 | 8496 ft | 211 kts | 230° |
| 2026-04-23 21:56 | -33.44214 | -70.79630 | 8877 ft | 212 kts | 211° |
| 2026-04-23 21:56 | -33.45520 | -70.80432 | 9239 ft | 212 kts | 207° |
| 2026-04-23 21:56 | -33.46847 | -70.81187 | 9595 ft | 212 kts | 207° |
| 2026-04-23 21:57 | -33.48188 | -70.81942 | 9963 ft | 211 kts | 207° |
| 2026-04-23 21:57 | -33.49515 | -70.82691 | 10324 ft | 210 kts | 207° |
| 2026-04-23 21:57 | -33.50829 | -70.83432 | 10685 ft | 209 kts | 207° |
| 2026-04-23 21:57 | -33.52143 | -70.84172 | 11050 ft | 208 kts | 208° |
| 2026-04-23 21:58 | -33.53459 | -70.84916 | 11404 ft | 207 kts | 208° |
| 2026-04-23 21:58 | -33.54767 | -70.85654 | 11765 ft | 206 kts | 208° |
| 2026-04-23 21:58 | -33.56050 | -70.86378 | 12117 ft | 205 kts | 208° |
| 2026-04-23 21:58 | -33.57345 | -70.87111 | 12483 ft | 204 kts | 208° |
| 2026-04-23 21:59 | -33.58607 | -70.87824 | 12842 ft | 203 kts | 208° |
| 2026-04-23 21:59 | -33.59887 | -70.88548 | 13206 ft | 201 kts | 208° |
| 2026-04-23 21:59 | -33.61143 | -70.89257 | 13571 ft | 199 kts | 209° |
| 2026-04-23 22:00 | -33.63622 | -70.90662 | 14276 ft | 196 kts | 209° |
| 2026-04-23 22:00 | -33.64840 | -70.91351 | 14648 ft | 194 kts | 209° |
| 2026-04-23 22:00 | -33.66054 | -70.92036 | 15019 ft | 192 kts | 210° |
| 2026-04-23 22:00 | -33.67256 | -70.92728 | 15391 ft | 188 kts | 214° |
| 2026-04-23 22:01 | -33.68038 | -70.93884 | 15697 ft | 178 kts | 255° |
| 2026-04-23 22:01 | -33.68257 | -70.95328 | 15962 ft | 178 kts | 270° |
| 2026-04-23 22:01 | -33.68300 | -70.96825 | 16225 ft | 180 kts | 272° |
| 2026-04-23 22:01 | -33.68307 | -70.98323 | 16472 ft | 183 kts | 273° |
| 2026-04-23 22:02 | -33.68303 | -70.99862 | 16746 ft | 185 kts | 273° |
| 2026-04-23 22:02 | -33.68298 | -71.01409 | 16994 ft | 186 kts | 273° |
| 2026-04-23 22:02 | -33.68291 | -71.02958 | 17257 ft | 187 kts | 273° |
| 2026-04-23 22:02 | -33.68284 | -71.04510 | 17521 ft | 188 kts | 273° |
| 2026-04-23 22:03 | -33.68277 | -71.06094 | 17786 ft | 188 kts | 273° |
| 2026-04-23 22:03 | -33.68270 | -71.07674 | 18047 ft | 189 kts | 273° |
| 2026-04-23 22:03 | -33.68261 | -71.09251 | 18304 ft | 188 kts | 273° |
| 2026-04-23 22:03 | -33.68253 | -71.10819 | 18562 ft | 188 kts | 273° |
| 2026-04-23 22:04 | -33.68245 | -71.12373 | 18817 ft | 188 kts | 273° |
| 2026-04-23 22:04 | -33.68235 | -71.13928 | 19081 ft | 187 kts | 272° |
| 2026-04-23 22:04 | -33.68226 | -71.15497 | 19338 ft | 186 kts | 272° |
| 2026-04-23 22:04 | -33.68217 | -71.17043 | 19596 ft | 185 kts | 272° |
| 2026-04-23 22:05 | -33.68208 | -71.18568 | 19851 ft | 184 kts | 272° |
| 2026-04-23 22:05 | -33.68198 | -71.20112 | 20110 ft | 183 kts | 272° |
| 2026-04-23 22:05 | -33.68190 | -71.21627 | 20368 ft | 182 kts | 272° |
| 2026-04-23 22:05 | -33.68181 | -71.23132 | 20634 ft | 181 kts | 271° |
| 2026-04-23 22:06 | -33.68172 | -71.24624 | 20882 ft | 179 kts | 272° |
| 2026-04-23 22:06 | -33.68162 | -71.26120 | 21148 ft | 177 kts | 272° |
| 2026-04-23 22:06 | -33.68152 | -71.27580 | 21405 ft | 176 kts | 271° |
| 2026-04-23 22:06 | -33.68143 | -71.29045 | 21658 ft | 174 kts | 271° |
| 2026-04-23 22:07 | -33.68133 | -71.30483 | 21906 ft | 172 kts | 271° |
| 2026-04-23 22:07 | -33.68123 | -71.31915 | 22169 ft | 170 kts | 271° |
| 2026-04-23 22:07 | -33.68113 | -71.33308 | 22429 ft | 168 kts | 270° |
| 2026-04-23 22:07 | -33.68183 | -71.34702 | 22689 ft | 166 kts | 266° |
| 2026-04-23 22:08 | -33.68290 | -71.36082 | 22946 ft | 164 kts | 266° |
| 2026-04-23 22:08 | -33.68394 | -71.37437 | 23203 ft | 162 kts | 266° |
| 2026-04-23 22:08 | -33.68496 | -71.38761 | 23459 ft | 160 kts | 266° |
| 2026-04-23 22:08 | -33.68598 | -71.40089 | 23722 ft | 158 kts | 266° |
| 2026-04-23 22:09 | -33.68697 | -71.41386 | 23980 ft | 156 kts | 266° |
| 2026-04-23 22:09 | -33.68796 | -71.42680 | 24118 ft | 161 kts | 266° |
| 2026-04-23 22:09 | -33.68901 | -71.44070 | 24127 ft | 171 kts | 266° |
| 2026-04-23 22:09 | -33.69011 | -71.45520 | 24124 ft | 180 kts | 266° |
| 2026-04-23 22:10 | -33.69127 | -71.47057 | 24123 ft | 188 kts | 266° |
| 2026-04-23 22:10 | -33.69247 | -71.48640 | 24122 ft | 195 kts | 266° |
| 2026-04-23 22:10 | -33.69374 | -71.50311 | 24122 ft | 201 kts | 265° |
| 2026-04-23 22:10 | -33.69506 | -71.52049 | 24117 ft | 205 kts | 265° |
| 2026-04-23 22:11 | -33.69637 | -71.53772 | 24118 ft | 209 kts | 265° |
| 2026-04-23 22:11 | -33.69770 | -71.55546 | 24117 ft | 212 kts | 265° |
| 2026-04-23 22:11 | -33.69901 | -71.57304 | 24117 ft | 215 kts | 265° |
| 2026-04-23 22:11 | -33.70037 | -71.59098 | 24111 ft | 217 kts | 265° |
| 2026-04-23 22:12 | -33.70171 | -71.60899 | 24110 ft | 218 kts | 266° |
| 2026-04-23 22:12 | -33.70235 | -71.62735 | 24112 ft | 220 kts | 269° |
| 2026-04-23 22:12 | -33.70280 | -71.64579 | 24113 ft | 221 kts | 268° |
| 2026-04-23 22:12 | -33.70323 | -71.66428 | 24118 ft | 222 kts | 269° |
| 2026-04-23 22:13 | -33.70367 | -71.68288 | 24118 ft | 223 kts | 269° |
| 2026-04-23 22:13 | -33.70412 | -71.70152 | 24118 ft | 224 kts | 269° |
| 2026-04-23 22:13 | -33.70456 | -71.72031 | 24115 ft | 225 kts | 269° |
| 2026-04-23 22:13 | -33.70500 | -71.73917 | 24117 ft | 225 kts | 269° |
| 2026-04-23 22:14 | -33.70544 | -71.75787 | 24118 ft | 226 kts | 269° |
| 2026-04-23 22:14 | -33.70589 | -71.77687 | 24123 ft | 226 kts | 269° |
| 2026-04-23 22:14 | -33.70632 | -71.79588 | 24124 ft | 227 kts | 269° |
| 2026-04-23 22:14 | -33.70675 | -71.81480 | 24122 ft | 227 kts | 269° |
| 2026-04-23 22:15 | -33.70719 | -71.83369 | 24122 ft | 227 kts | 269° |
| 2026-04-23 22:15 | -33.70761 | -71.85243 | 24119 ft | 227 kts | 269° |
| 2026-04-23 22:15 | -33.70805 | -71.87150 | 24118 ft | 227 kts | 269° |
| 2026-04-23 22:15 | -33.70847 | -71.89040 | 24118 ft | 227 kts | 269° |
| 2026-04-23 22:16 | -33.70890 | -71.90941 | 24121 ft | 227 kts | 269° |
| 2026-04-23 22:16 | -33.70932 | -71.92836 | 24121 ft | 227 kts | 269° |
| 2026-04-23 22:16 | -33.70973 | -71.94713 | 24123 ft | 227 kts | 269° |
| 2026-04-23 22:16 | -33.71014 | -71.96613 | 24124 ft | 227 kts | 269° |
| 2026-04-23 22:17 | -33.71054 | -71.98492 | 24126 ft | 227 kts | 269° |
| 2026-04-23 22:17 | -33.71095 | -72.00407 | 24130 ft | 227 kts | 269° |
| 2026-04-23 22:17 | -33.71135 | -72.02274 | 24130 ft | 227 kts | 269° |
| 2026-04-23 22:17 | -33.71175 | -72.04190 | 24126 ft | 227 kts | 269° |
| 2026-04-23 22:18 | -33.71215 | -72.06074 | 24126 ft | 227 kts | 269° |
| 2026-04-23 22:18 | -33.71255 | -72.07968 | 24128 ft | 227 kts | 269° |
| 2026-04-23 22:18 | -33.71293 | -72.09846 | 24130 ft | 227 kts | 269° |
| 2026-04-23 22:18 | -33.71333 | -72.11734 | 24133 ft | 227 kts | 269° |
| 2026-04-23 22:19 | -33.71372 | -72.13645 | 24133 ft | 227 kts | 269° |
| 2026-04-23 22:19 | -33.71411 | -72.15540 | 24135 ft | 227 kts | 269° |
| 2026-04-23 22:19 | -33.71448 | -72.17427 | 24133 ft | 227 kts | 269° |
| 2026-04-23 22:19 | -33.71487 | -72.19316 | 24135 ft | 227 kts | 269° |
| 2026-04-23 22:20 | -33.71524 | -72.21229 | 24131 ft | 227 kts | 269° |
| 2026-04-23 22:20 | -33.71562 | -72.23125 | 24131 ft | 227 kts | 269° |
| 2026-04-23 22:20 | -33.71599 | -72.25010 | 24132 ft | 227 kts | 269° |
| 2026-04-23 22:20 | -33.71635 | -72.26899 | 24134 ft | 227 kts | 269° |
| 2026-04-23 22:21 | -33.71673 | -72.28805 | 24135 ft | 227 kts | 269° |
| 2026-04-23 22:21 | -33.71708 | -72.30670 | 24136 ft | 227 kts | 269° |
| 2026-04-23 22:21 | -33.71744 | -72.32585 | 24138 ft | 227 kts | 268° |
| 2026-04-23 22:21 | -33.71780 | -72.34471 | 24141 ft | 227 kts | 269° |
| 2026-04-23 22:22 | -33.71816 | -72.36348 | 24139 ft | 227 kts | 268° |
| 2026-04-23 22:22 | -33.71851 | -72.38257 | 24138 ft | 227 kts | 268° |
| 2026-04-23 22:22 | -33.71886 | -72.40138 | 24139 ft | 227 kts | 269° |
| 2026-04-23 22:22 | -33.71919 | -72.42020 | 24143 ft | 226 kts | 268° |
| 2026-04-23 22:23 | -33.71954 | -72.43919 | 24145 ft | 226 kts | 268° |
| 2026-04-23 22:23 | -33.71988 | -72.45803 | 24150 ft | 226 kts | 268° |
| 2026-04-23 22:23 | -33.72022 | -72.47683 | 24150 ft | 226 kts | 268° |
| 2026-04-23 22:23 | -33.72055 | -72.49549 | 24151 ft | 226 kts | 268° |
| 2026-04-23 22:24 | -33.72088 | -72.51441 | 24149 ft | 226 kts | 268° |
| 2026-04-23 22:24 | -33.72120 | -72.53319 | 24153 ft | 226 kts | 268° |
| 2026-04-23 22:24 | -33.72152 | -72.55190 | 24151 ft | 226 kts | 268° |
| 2026-04-23 22:24 | -33.72185 | -72.57095 | 24149 ft | 226 kts | 268° |
| 2026-04-23 22:25 | -33.72217 | -72.58962 | 24145 ft | 226 kts | 268° |
| 2026-04-23 22:25 | -33.72248 | -72.60853 | 24151 ft | 226 kts | 268° |
| 2026-04-23 22:25 | -33.72280 | -72.62740 | 24157 ft | 226 kts | 268° |
| 2026-04-23 22:25 | -33.72310 | -72.64608 | 24156 ft | 226 kts | 268° |
| 2026-04-23 22:26 | -33.72338 | -72.66278 | 24160 ft | 226 kts | 269° |
| 2026-04-23 22:26 | -33.72368 | -72.68162 | 24160 ft | 226 kts | 269° |
| 2026-04-23 22:26 | -33.72399 | -72.70052 | 24165 ft | 226 kts | 269° |
| 2026-04-23 22:26 | -33.72429 | -72.71950 | 24163 ft | 227 kts | 269° |
| 2026-04-23 22:27 | -33.72460 | -72.73843 | 24162 ft | 227 kts | 269° |
| 2026-04-23 22:27 | -33.72489 | -72.75745 | 24162 ft | 227 kts | 269° |
| 2026-04-23 22:27 | -33.72518 | -72.77626 | 24164 ft | 227 kts | 269° |
| 2026-04-23 22:27 | -33.72546 | -72.79518 | 24165 ft | 227 kts | 269° |
| 2026-04-23 22:28 | -33.72574 | -72.81405 | 24162 ft | 227 kts | 269° |
| 2026-04-23 22:28 | -33.72602 | -72.83308 | 24158 ft | 227 kts | 268° |
| 2026-04-23 22:28 | -33.72630 | -72.85198 | 24163 ft | 227 kts | 269° |
| 2026-04-23 22:28 | -33.72657 | -72.87081 | 24166 ft | 227 kts | 268° |
| 2026-04-23 22:29 | -33.72684 | -72.88969 | 24169 ft | 227 kts | 268° |
| 2026-04-23 22:29 | -33.72711 | -72.90861 | 24172 ft | 226 kts | 268° |
| 2026-04-23 22:29 | -33.72737 | -72.92741 | 24172 ft | 226 kts | 268° |
| 2026-04-23 22:29 | -33.72763 | -72.94634 | 24172 ft | 226 kts | 268° |
| 2026-04-23 22:30 | -33.72789 | -72.96512 | 24171 ft | 227 kts | 268° |
| 2026-04-23 22:30 | -33.72815 | -72.98395 | 24168 ft | 227 kts | 268° |
| 2026-04-23 22:30 | -33.72840 | -73.00294 | 24171 ft | 227 kts | 269° |
| 2026-04-23 22:30 | -33.72865 | -73.02184 | 24177 ft | 227 kts | 269° |
| 2026-04-23 22:31 | -33.72890 | -73.04082 | 24175 ft | 227 kts | 269° |
| 2026-04-23 22:31 | -33.72914 | -73.05975 | 24175 ft | 227 kts | 269° |
| 2026-04-23 22:31 | -33.72939 | -73.07871 | 24176 ft | 227 kts | 269° |
| 2026-04-23 22:31 | -33.72963 | -73.09784 | 24171 ft | 227 kts | 268° |
| 2026-04-23 22:32 | -33.72986 | -73.11665 | 24174 ft | 227 kts | 268° |
| 2026-04-23 22:32 | -33.73009 | -73.13576 | 24178 ft | 227 kts | 268° |
| 2026-04-23 22:32 | -33.73032 | -73.15451 | 24177 ft | 227 kts | 268° |
| 2026-04-23 22:32 | -33.73055 | -73.17344 | 24179 ft | 227 kts | 269° |
| 2026-04-23 22:33 | -33.73077 | -73.19246 | 24177 ft | 227 kts | 268° |
| 2026-04-23 22:33 | -33.73100 | -73.21131 | 24178 ft | 226 kts | 268° |
| 2026-04-23 22:33 | -33.73121 | -73.23006 | 24183 ft | 226 kts | 268° |
| 2026-04-23 22:33 | -33.73143 | -73.24886 | 24181 ft | 226 kts | 269° |
| 2026-04-23 22:34 | -33.73165 | -73.26788 | 24174 ft | 226 kts | 268° |
| 2026-04-23 22:34 | -33.73185 | -73.28670 | 24174 ft | 227 kts | 268° |
| 2026-04-23 22:34 | -33.73206 | -73.30548 | 24174 ft | 227 kts | 269° |
| 2026-04-23 22:34 | -33.73226 | -73.32436 | 24179 ft | 227 kts | 269° |
| 2026-04-23 22:35 | -33.73246 | -73.34347 | 24183 ft | 227 kts | 268° |
| 2026-04-23 22:35 | -33.73265 | -73.36229 | 24183 ft | 227 kts | 268° |
| 2026-04-23 22:35 | -33.73284 | -73.38102 | 24181 ft | 227 kts | 268° |
| 2026-04-23 22:35 | -33.73304 | -73.40008 | 24183 ft | 227 kts | 268° |
| 2026-04-23 22:36 | -33.73323 | -73.41882 | 24184 ft | 227 kts | 268° |
| 2026-04-23 22:36 | -33.73342 | -73.43792 | 24185 ft | 227 kts | 268° |
| 2026-04-23 22:36 | -33.73360 | -73.45660 | 24189 ft | 227 kts | 268° |
| 2026-04-23 22:36 | -33.73379 | -73.47564 | 24191 ft | 227 kts | 268° |
| 2026-04-23 22:37 | -33.73396 | -73.49448 | 24189 ft | 227 kts | 268° |
| 2026-04-23 22:37 | -33.73414 | -73.51338 | 24188 ft | 227 kts | 268° |
| 2026-04-23 22:37 | -33.73431 | -73.53218 | 24188 ft | 227 kts | 268° |
| 2026-04-23 22:37 | -33.73448 | -73.55103 | 24185 ft | 227 kts | 268° |
| 2026-04-23 22:38 | -33.73465 | -73.56996 | 24186 ft | 227 kts | 268° |
| 2026-04-23 22:38 | -33.73482 | -73.58904 | 24185 ft | 227 kts | 268° |
| 2026-04-23 22:38 | -33.73498 | -73.60778 | 24185 ft | 226 kts | 268° |
| 2026-04-23 22:38 | -33.73513 | -73.62657 | 24187 ft | 226 kts | 268° |
| 2026-04-23 22:39 | -33.73528 | -73.64558 | 24189 ft | 226 kts | 268° |
| 2026-04-23 22:39 | -33.73544 | -73.66441 | 24195 ft | 226 kts | 269° |
| 2026-04-23 22:39 | -33.73558 | -73.68342 | 24196 ft | 227 kts | 269° |
| 2026-04-23 22:39 | -33.73573 | -73.70225 | 24198 ft | 227 kts | 269° |
| 2026-04-23 22:40 | -33.73587 | -73.72106 | 24198 ft | 227 kts | 269° |
| 2026-04-23 22:40 | -33.73601 | -73.74024 | 24202 ft | 228 kts | 269° |
| 2026-04-23 22:40 | -33.73628 | -73.77817 | 24199 ft | 228 kts | 269° |
| 2026-04-23 22:41 | -33.73642 | -73.79720 | 24196 ft | 228 kts | 269° |
| 2026-04-23 22:41 | -33.73655 | -73.81606 | 24191 ft | 228 kts | 269° |
| 2026-04-23 22:41 | -33.73668 | -73.83508 | 24190 ft | 228 kts | 269° |
| 2026-04-23 22:41 | -33.73680 | -73.85416 | 24189 ft | 228 kts | 269° |
| 2026-04-23 22:42 | -33.73692 | -73.87315 | 24191 ft | 228 kts | 269° |
| 2026-04-23 22:42 | -33.73704 | -73.89238 | 24193 ft | 228 kts | 269° |
| 2026-04-23 22:42 | -33.73716 | -73.91122 | 24194 ft | 228 kts | 269° |
| 2026-04-23 22:42 | -33.73727 | -73.93014 | 24196 ft | 228 kts | 269° |
| 2026-04-23 22:43 | -33.73738 | -73.94933 | 24198 ft | 228 kts | 269° |
| 2026-04-23 22:43 | -33.73750 | -73.96827 | 24203 ft | 228 kts | 269° |
| 2026-04-23 22:43 | -33.73759 | -73.98741 | 24207 ft | 228 kts | 269° |
| 2026-04-23 22:43 | -33.73769 | -74.00633 | 24209 ft | 228 kts | 269° |
| 2026-04-23 22:44 | -33.73778 | -74.02525 | 24208 ft | 228 kts | 269° |
| 2026-04-23 22:44 | -33.73787 | -74.04423 | 24209 ft | 228 kts | 269° |
| 2026-04-23 22:44 | -33.73797 | -74.06338 | 24212 ft | 228 kts | 269° |
| 2026-04-23 22:44 | -33.73806 | -74.08231 | 24211 ft | 228 kts | 269° |
| 2026-04-23 22:45 | -33.73814 | -74.10118 | 24210 ft | 228 kts | 269° |
| 2026-04-23 22:45 | -33.73823 | -74.12038 | 24210 ft | 228 kts | 269° |
| 2026-04-23 22:45 | -33.73832 | -74.13924 | 24211 ft | 228 kts | 269° |
| 2026-04-23 22:45 | -33.73839 | -74.15818 | 24212 ft | 228 kts | 269° |
| 2026-04-23 22:46 | -33.73847 | -74.17731 | 24210 ft | 228 kts | 269° |
| 2026-04-23 22:46 | -33.73853 | -74.19626 | 24209 ft | 228 kts | 269° |
| 2026-04-23 22:46 | -33.73860 | -74.21516 | 24211 ft | 228 kts | 269° |
| 2026-04-23 22:46 | -33.73867 | -74.23421 | 24213 ft | 228 kts | 269° |
| 2026-04-23 22:47 | -33.73873 | -74.25322 | 24213 ft | 228 kts | 269° |
| 2026-04-23 22:47 | -33.73879 | -74.27227 | 24214 ft | 228 kts | 269° |
| 2026-04-23 22:47 | -33.73883 | -74.29118 | 24214 ft | 228 kts | 269° |
| 2026-04-23 22:47 | -33.73889 | -74.31041 | 24216 ft | 228 kts | 269° |
| 2026-04-23 22:48 | -33.73895 | -74.32948 | 24217 ft | 228 kts | 269° |
| 2026-04-23 22:48 | -33.73900 | -74.34838 | 24217 ft | 228 kts | 269° |
| 2026-04-23 22:48 | -33.73905 | -74.36742 | 24215 ft | 228 kts | 269° |
| 2026-04-23 22:48 | -33.73909 | -74.38650 | 24215 ft | 228 kts | 269° |
| 2026-04-23 22:49 | -33.73913 | -74.40553 | 24213 ft | 228 kts | 269° |
| 2026-04-23 22:49 | -33.73917 | -74.42449 | 24215 ft | 228 kts | 269° |
| 2026-04-23 22:49 | -33.73920 | -74.44337 | 24216 ft | 228 kts | 269° |
| 2026-04-23 22:49 | -33.73923 | -74.46237 | 24218 ft | 228 kts | 269° |
| 2026-04-23 22:50 | -33.73926 | -74.48149 | 24222 ft | 228 kts | 269° |
| 2026-04-23 22:50 | -33.73929 | -74.50043 | 24225 ft | 228 kts | 269° |
| 2026-04-23 22:50 | -33.73931 | -74.51947 | 24225 ft | 228 kts | 269° |
| 2026-04-23 22:50 | -33.73932 | -74.53856 | 24224 ft | 228 kts | 269° |
| 2026-04-23 22:51 | -33.73933 | -74.55760 | 24225 ft | 228 kts | 269° |
| 2026-04-23 22:51 | -33.73935 | -74.57661 | 24226 ft | 228 kts | 269° |
| 2026-04-23 22:51 | -33.73935 | -74.59555 | 24227 ft | 228 kts | 269° |
| 2026-04-23 22:51 | -33.73936 | -74.61436 | 24228 ft | 228 kts | 269° |
| 2026-04-23 22:52 | -33.73936 | -74.63343 | 24227 ft | 227 kts | 269° |
| 2026-04-23 22:52 | -33.73937 | -74.65228 | 24225 ft | 228 kts | 269° |
| 2026-04-23 22:52 | -33.73937 | -74.67138 | 24230 ft | 228 kts | 269° |
| 2026-04-23 22:52 | -33.73937 | -74.69028 | 24233 ft | 228 kts | 269° |
| 2026-04-23 22:53 | -33.73936 | -74.70937 | 24235 ft | 228 kts | 269° |
| 2026-04-23 22:53 | -33.73936 | -74.72845 | 24238 ft | 229 kts | 269° |
| 2026-04-23 22:53 | -33.73935 | -74.74751 | 24238 ft | 229 kts | 269° |
| 2026-04-23 22:53 | -33.73932 | -74.76661 | 24241 ft | 229 kts | 269° |
| 2026-04-23 22:54 | -33.73930 | -74.78571 | 24242 ft | 229 kts | 269° |
| 2026-04-23 22:54 | -33.73927 | -74.80487 | 24242 ft | 229 kts | 269° |
| 2026-04-23 22:54 | -33.73925 | -74.82395 | 24244 ft | 230 kts | 269° |
| 2026-04-23 22:54 | -33.73922 | -74.84311 | 24247 ft | 230 kts | 269° |
| 2026-04-23 22:55 | -33.73919 | -74.86231 | 24245 ft | 230 kts | 269° |
| 2026-04-23 22:55 | -33.73917 | -74.88127 | 24242 ft | 230 kts | 269° |
| 2026-04-23 22:55 | -33.73914 | -74.90058 | 24238 ft | 230 kts | 269° |
| 2026-04-23 22:55 | -33.73908 | -74.91975 | 24241 ft | 230 kts | 269° |
| 2026-04-23 22:56 | -33.73904 | -74.93881 | 24244 ft | 230 kts | 269° |
| 2026-04-23 22:56 | -33.73900 | -74.95794 | 24246 ft | 230 kts | 269° |
| 2026-04-23 22:56 | -33.73895 | -74.97723 | 24249 ft | 230 kts | 269° |
| 2026-04-23 22:56 | -33.73889 | -74.99630 | 24247 ft | 230 kts | 269° |
| 2026-04-23 22:57 | -33.73885 | -75.01535 | 24244 ft | 230 kts | 269° |
| 2026-04-23 22:57 | -33.73880 | -75.03475 | 24240 ft | 230 kts | 269° |
| 2026-04-23 22:57 | -33.73873 | -75.05379 | 24240 ft | 230 kts | 269° |
| 2026-04-23 22:57 | -33.73867 | -75.07292 | 24237 ft | 230 kts | 269° |
| 2026-04-23 22:58 | -33.73859 | -75.09234 | 24236 ft | 230 kts | 269° |
| 2026-04-23 22:58 | -33.73852 | -75.11135 | 24236 ft | 230 kts | 269° |
| 2026-04-23 22:58 | -33.73844 | -75.13070 | 24237 ft | 230 kts | 269° |
| 2026-04-23 22:58 | -33.73837 | -75.14984 | 24238 ft | 230 kts | 269° |
| 2026-04-23 22:59 | -33.73829 | -75.16885 | 24235 ft | 230 kts | 269° |
| 2026-04-23 22:59 | -33.73821 | -75.18815 | 24238 ft | 230 kts | 269° |
| 2026-04-23 22:59 | -33.73813 | -75.20736 | 24242 ft | 230 kts | 269° |
| 2026-04-23 22:59 | -33.73804 | -75.22662 | 24244 ft | 230 kts | 269° |
| 2026-04-23 23:00 | -33.73795 | -75.24574 | 24242 ft | 230 kts | 269° |
| 2026-04-23 23:00 | -33.73786 | -75.26490 | 24241 ft | 230 kts | 269° |
| 2026-04-23 23:00 | -33.73777 | -75.28401 | 24242 ft | 230 kts | 269° |
| 2026-04-23 23:00 | -33.73766 | -75.30319 | 24244 ft | 230 kts | 269° |
| 2026-04-23 23:01 | -33.73755 | -75.32235 | 24245 ft | 230 kts | 269° |
| 2026-04-23 23:01 | -33.73745 | -75.34129 | 24243 ft | 230 kts | 269° |
| 2026-04-23 23:01 | -33.73735 | -75.36056 | 24243 ft | 230 kts | 269° |
| 2026-04-23 23:01 | -33.73723 | -75.37968 | 24244 ft | 230 kts | 269° |
| 2026-04-23 23:02 | -33.73712 | -75.39877 | 24244 ft | 230 kts | 269° |
| 2026-04-23 23:02 | -33.73701 | -75.41790 | 24245 ft | 230 kts | 269° |
| 2026-04-23 23:02 | -33.73689 | -75.43723 | 24245 ft | 229 kts | 269° |
| 2026-04-23 23:02 | -33.73676 | -75.45634 | 24246 ft | 229 kts | 269° |
| 2026-04-23 23:03 | -33.73663 | -75.47547 | 24247 ft | 229 kts | 269° |
| 2026-04-23 23:03 | -33.73650 | -75.49442 | 24251 ft | 229 kts | 269° |
| 2026-04-23 23:03 | -33.73637 | -75.51366 | 24252 ft | 229 kts | 269° |
| 2026-04-23 23:03 | -33.73624 | -75.53259 | 24250 ft | 229 kts | 269° |
| 2026-04-23 23:04 | -33.73611 | -75.55179 | 24249 ft | 229 kts | 269° |
| 2026-04-23 23:04 | -33.73597 | -75.57075 | 24254 ft | 229 kts | 269° |
| 2026-04-23 23:04 | -33.73582 | -75.58982 | 24257 ft | 229 kts | 269° |
| 2026-04-23 23:04 | -33.73568 | -75.60893 | 24256 ft | 229 kts | 269° |
| 2026-04-23 23:05 | -33.73553 | -75.62800 | 24257 ft | 229 kts | 269° |
| 2026-04-23 23:05 | -33.73537 | -75.64723 | 24256 ft | 229 kts | 269° |
| 2026-04-23 23:05 | -33.73521 | -75.66648 | 24259 ft | 230 kts | 270° |
| 2026-04-23 23:05 | -33.73506 | -75.68539 | 24260 ft | 230 kts | 270° |
| 2026-04-23 23:06 | -33.73490 | -75.70481 | 24257 ft | 230 kts | 269° |
| 2026-04-23 23:06 | -33.73473 | -75.72380 | 24254 ft | 230 kts | 270° |
| 2026-04-23 23:06 | -33.73457 | -75.74305 | 24252 ft | 231 kts | 270° |
| 2026-04-23 23:06 | -33.73440 | -75.76241 | 24251 ft | 230 kts | 270° |
| 2026-04-23 23:07 | -33.73422 | -75.78155 | 24250 ft | 230 kts | 270° |
| 2026-04-23 23:07 | -33.73405 | -75.80069 | 24251 ft | 230 kts | 270° |
| 2026-04-23 23:07 | -33.73387 | -75.81995 | 24252 ft | 230 kts | 270° |
| 2026-04-23 23:07 | -33.73368 | -75.83923 | 24253 ft | 230 kts | 270° |
| 2026-04-23 23:08 | -33.73349 | -75.85829 | 24253 ft | 230 kts | 270° |
| 2026-04-23 23:08 | -33.73331 | -75.87737 | 24252 ft | 230 kts | 270° |
| 2026-04-23 23:08 | -33.73312 | -75.89661 | 24251 ft | 230 kts | 270° |
| 2026-04-23 23:08 | -33.73293 | -75.91578 | 24252 ft | 230 kts | 270° |
| 2026-04-23 23:09 | -33.73272 | -75.93514 | 24253 ft | 230 kts | 270° |
| 2026-04-23 23:09 | -33.73252 | -75.95434 | 24254 ft | 230 kts | 270° |
| 2026-04-23 23:09 | -33.73232 | -75.97351 | 24255 ft | 231 kts | 269° |
| 2026-04-23 23:09 | -33.73211 | -75.99279 | 24256 ft | 231 kts | 270° |
| 2026-04-23 23:10 | -33.73190 | -76.01200 | 24256 ft | 231 kts | 270° |
| 2026-04-23 23:10 | -33.73170 | -76.03118 | 24254 ft | 231 kts | 270° |
| 2026-04-23 23:10 | -33.73148 | -76.05039 | 24255 ft | 231 kts | 269° |
| 2026-04-23 23:10 | -33.73125 | -76.06978 | 24256 ft | 231 kts | 269° |
| 2026-04-23 23:11 | -33.73104 | -76.08879 | 24257 ft | 231 kts | 270° |
| 2026-04-23 23:11 | -33.73081 | -76.10810 | 24259 ft | 231 kts | 270° |
| 2026-04-23 23:11 | -33.73058 | -76.12742 | 24259 ft | 230 kts | 269° |
| 2026-04-23 23:11 | -33.73035 | -76.14641 | 24258 ft | 230 kts | 269° |
| 2026-04-23 23:12 | -33.73012 | -76.16568 | 24258 ft | 230 kts | 270° |
| 2026-04-23 23:12 | -33.72989 | -76.18487 | 24258 ft | 230 kts | 269° |
| 2026-04-23 23:12 | -33.72964 | -76.20406 | 24257 ft | 230 kts | 269° |
| 2026-04-23 23:12 | -33.72940 | -76.22321 | 24256 ft | 230 kts | 269° |
| 2026-04-23 23:13 | -33.72916 | -76.24255 | 24257 ft | 230 kts | 269° |
| 2026-04-23 23:13 | -33.72892 | -76.26149 | 24258 ft | 230 kts | 269° |
| 2026-04-23 23:13 | -33.72866 | -76.28074 | 24259 ft | 230 kts | 269° |
| 2026-04-23 23:13 | -33.72841 | -76.29997 | 24261 ft | 230 kts | 269° |
| 2026-04-23 23:14 | -33.72815 | -76.31898 | 24263 ft | 230 kts | 269° |
| 2026-04-23 23:14 | -33.72790 | -76.33826 | 24263 ft | 230 kts | 269° |
| 2026-04-23 23:14 | -33.72763 | -76.35733 | 24262 ft | 230 kts | 269° |
| 2026-04-23 23:14 | -33.72737 | -76.37642 | 24261 ft | 230 kts | 269° |
| 2026-04-23 23:15 | -33.72710 | -76.39561 | 24259 ft | 230 kts | 269° |
| 2026-04-23 23:15 | -33.72683 | -76.41502 | 24259 ft | 230 kts | 269° |
| 2026-04-23 23:15 | -33.72654 | -76.43417 | 24260 ft | 230 kts | 269° |
| 2026-04-23 23:15 | -33.72627 | -76.45319 | 24261 ft | 230 kts | 269° |
| 2026-04-23 23:16 | -33.72599 | -76.47254 | 24260 ft | 230 kts | 269° |
| 2026-04-23 23:16 | -33.72571 | -76.49155 | 24260 ft | 230 kts | 269° |
| 2026-04-23 23:16 | -33.72543 | -76.51073 | 24261 ft | 229 kts | 269° |
| 2026-04-23 23:16 | -33.72513 | -76.53010 | 24263 ft | 229 kts | 269° |
| 2026-04-23 23:17 | -33.72483 | -76.54906 | 24265 ft | 229 kts | 269° |
| 2026-04-23 23:17 | -33.72455 | -76.56831 | 24264 ft | 229 kts | 269° |
| 2026-04-23 23:17 | -33.72425 | -76.58722 | 24263 ft | 229 kts | 269° |
| 2026-04-23 23:17 | -33.72396 | -76.60636 | 24264 ft | 229 kts | 269° |
| 2026-04-23 23:18 | -33.72365 | -76.62561 | 24265 ft | 229 kts | 269° |
| 2026-04-23 23:18 | -33.72335 | -76.64455 | 24264 ft | 230 kts | 269° |
| 2026-04-23 23:18 | -33.72304 | -76.66382 | 24268 ft | 230 kts | 270° |
| 2026-04-23 23:18 | -33.72272 | -76.68285 | 24271 ft | 230 kts | 270° |
| 2026-04-23 23:19 | -33.72240 | -76.70225 | 24272 ft | 231 kts | 270° |
| 2026-04-23 23:19 | -33.72208 | -76.72131 | 24273 ft | 231 kts | 270° |
| 2026-04-23 23:19 | -33.72176 | -76.74073 | 24274 ft | 231 kts | 270° |
| 2026-04-23 23:19 | -33.72144 | -76.75980 | 24275 ft | 231 kts | 269° |
| 2026-04-23 23:20 | -33.72111 | -76.77891 | 24274 ft | 231 kts | 270° |
| 2026-04-23 23:20 | -33.72078 | -76.79829 | 24275 ft | 231 kts | 270° |
| 2026-04-23 23:20 | -33.72045 | -76.81744 | 24275 ft | 231 kts | 270° |
| 2026-04-23 23:20 | -33.72011 | -76.83683 | 24275 ft | 231 kts | 270° |
| 2026-04-23 23:21 | -33.71977 | -76.85598 | 24276 ft | 231 kts | 270° |
| 2026-04-23 23:21 | -33.71943 | -76.87508 | 24275 ft | 231 kts | 270° |
| 2026-04-23 23:21 | -33.71907 | -76.89449 | 24275 ft | 231 kts | 270° |
| 2026-04-23 23:21 | -33.71872 | -76.91360 | 24275 ft | 231 kts | 270° |
| 2026-04-23 23:22 | -33.71838 | -76.93277 | 24275 ft | 231 kts | 270° |
| 2026-04-23 23:22 | -33.71801 | -76.95218 | 24275 ft | 231 kts | 269° |
| 2026-04-23 23:22 | -33.71765 | -76.97139 | 24277 ft | 231 kts | 269° |
| 2026-04-23 23:22 | -33.71730 | -76.99056 | 24278 ft | 231 kts | 269° |
| 2026-04-23 23:23 | -33.71694 | -77.00976 | 24276 ft | 231 kts | 269° |
| 2026-04-23 23:23 | -33.71657 | -77.02915 | 24275 ft | 231 kts | 269° |
| 2026-04-23 23:23 | -33.71620 | -77.04832 | 24275 ft | 231 kts | 269° |
| 2026-04-23 23:23 | -33.71583 | -77.06766 | 24272 ft | 231 kts | 269° |
| 2026-04-23 23:24 | -33.71547 | -77.08691 | 24274 ft | 231 kts | 269° |
| 2026-04-23 23:24 | -33.71508 | -77.10628 | 24277 ft | 230 kts | 269° |
| 2026-04-23 23:24 | -33.71472 | -77.12534 | 24150 ft | 236 kts | 270° |
| 2026-04-23 23:24 | -33.71434 | -77.14552 | 23893 ft | 244 kts | 270° |
| 2026-04-23 23:25 | -33.71393 | -77.16608 | 23637 ft | 250 kts | 270° |
| 2026-04-23 23:25 | -33.71350 | -77.18694 | 23386 ft | 253 kts | 270° |
| 2026-04-23 23:25 | -33.71306 | -77.20798 | 23123 ft | 253 kts | 270° |
| 2026-04-23 23:25 | -33.71261 | -77.22925 | 22857 ft | 253 kts | 270° |
| 2026-04-23 23:26 | -33.71216 | -77.25030 | 22597 ft | 254 kts | 269° |
| 2026-04-23 23:26 | -33.71173 | -77.27126 | 22337 ft | 254 kts | 269° |
| 2026-04-23 23:26 | -33.71128 | -77.29266 | 22075 ft | 254 kts | 269° |
| 2026-04-23 23:26 | -33.71084 | -77.31368 | 21813 ft | 254 kts | 269° |
| 2026-04-23 23:27 | -33.71038 | -77.33477 | 21556 ft | 254 kts | 269° |
| 2026-04-23 23:27 | -33.70993 | -77.35582 | 21296 ft | 254 kts | 269° |
| 2026-04-23 23:27 | -33.70947 | -77.37722 | 21034 ft | 254 kts | 270° |
| 2026-04-23 23:27 | -33.70900 | -77.39825 | 20777 ft | 254 kts | 269° |
| 2026-04-23 23:28 | -33.70854 | -77.41933 | 20523 ft | 254 kts | 270° |
| 2026-04-23 23:28 | -33.70806 | -77.44058 | 20264 ft | 254 kts | 270° |
| 2026-04-23 23:28 | -33.70758 | -77.46191 | 20001 ft | 254 kts | 270° |
| 2026-04-23 23:28 | -33.70710 | -77.48327 | 19740 ft | 254 kts | 269° |
| 2026-04-23 23:29 | -33.70661 | -77.50444 | 19481 ft | 254 kts | 269° |
| 2026-04-23 23:29 | -33.70613 | -77.52555 | 19226 ft | 254 kts | 269° |
| 2026-04-23 23:29 | -33.70564 | -77.54685 | 18971 ft | 254 kts | 269° |
| 2026-04-23 23:29 | -33.70514 | -77.56821 | 18713 ft | 254 kts | 269° |
| 2026-04-23 23:30 | -33.70464 | -77.58937 | 18459 ft | 254 kts | 269° |
| 2026-04-23 23:30 | -33.70414 | -77.61047 | 18204 ft | 254 kts | 269° |
| 2026-04-23 23:30 | -33.70364 | -77.63163 | 17950 ft | 254 kts | 269° |
| 2026-04-23 23:30 | -33.70314 | -77.65273 | 17700 ft | 254 kts | 270° |
| 2026-04-23 23:31 | -33.70264 | -77.67387 | 17452 ft | 254 kts | 270° |
| 2026-04-23 23:31 | -33.70212 | -77.69492 | 17207 ft | 254 kts | 270° |
| 2026-04-23 23:31 | -33.70160 | -77.71598 | 16966 ft | 253 kts | 270° |
| 2026-04-23 23:31 | -33.70107 | -77.73729 | 16719 ft | 253 kts | 270° |
| 2026-04-23 23:32 | -33.70055 | -77.75834 | 16473 ft | 253 kts | 270° |
| 2026-04-23 23:32 | -33.70002 | -77.77934 | 16229 ft | 253 kts | 270° |
| 2026-04-23 23:32 | -33.69949 | -77.80039 | 15987 ft | 253 kts | 270° |
| 2026-04-23 23:32 | -33.69895 | -77.82171 | 15738 ft | 253 kts | 270° |
| 2026-04-23 23:33 | -33.69842 | -77.84261 | 15493 ft | 253 kts | 270° |
| 2026-04-23 23:33 | -33.69788 | -77.86367 | 15248 ft | 253 kts | 270° |
| 2026-04-23 23:33 | -33.69733 | -77.88487 | 14998 ft | 253 kts | 270° |
| 2026-04-23 23:33 | -33.69679 | -77.90573 | 14753 ft | 253 kts | 270° |
| 2026-04-23 23:34 | -33.69624 | -77.92699 | 14505 ft | 253 kts | 270° |
| 2026-04-23 23:34 | -33.69569 | -77.94788 | 14260 ft | 253 kts | 270° |
| 2026-04-23 23:34 | -33.69513 | -77.96886 | 14016 ft | 253 kts | 270° |
| 2026-04-23 23:34 | -33.69456 | -77.98986 | 13776 ft | 252 kts | 270° |
| 2026-04-23 23:35 | -33.69398 | -78.01096 | 13528 ft | 253 kts | 270° |
| 2026-04-23 23:35 | -33.69342 | -78.03181 | 13283 ft | 252 kts | 270° |
| 2026-04-23 23:35 | -33.69284 | -78.05297 | 13035 ft | 252 kts | 269° |
| 2026-04-23 23:35 | -33.69228 | -78.07408 | 12789 ft | 252 kts | 269° |
| 2026-04-23 23:36 | -33.69170 | -78.09494 | 12546 ft | 253 kts | 270° |
| 2026-04-23 23:36 | -33.69112 | -78.11610 | 12300 ft | 253 kts | 270° |
| 2026-04-23 23:36 | -33.69054 | -78.13698 | 12054 ft | 253 kts | 270° |
| 2026-04-23 23:36 | -33.68995 | -78.15808 | 11807 ft | 253 kts | 270° |
| 2026-04-23 23:37 | -33.68935 | -78.17919 | 11561 ft | 253 kts | 270° |
| 2026-04-23 23:37 | -33.68875 | -78.20020 | 11315 ft | 253 kts | 270° |
| 2026-04-23 23:37 | -33.68815 | -78.22129 | 11068 ft | 253 kts | 270° |
| 2026-04-23 23:37 | -33.68755 | -78.24229 | 10821 ft | 253 kts | 270° |
| 2026-04-23 23:38 | -33.68693 | -78.26343 | 10573 ft | 253 kts | 270° |
| 2026-04-23 23:38 | -33.68633 | -78.28430 | 10327 ft | 253 kts | 270° |
| 2026-04-23 23:38 | -33.68571 | -78.30540 | 10078 ft | 253 kts | 270° |
| 2026-04-23 23:38 | -33.68509 | -78.32655 | 9829 ft | 253 kts | 270° |
| 2026-04-23 23:39 | -33.68440 | -78.34751 | 9582 ft | 247 kts | 270° |
| 2026-04-23 23:39 | -33.68380 | -78.36752 | 9333 ft | 236 kts | 269° |
| 2026-04-23 23:39 | -33.68323 | -78.38689 | 9082 ft | 228 kts | 270° |
| 2026-04-23 23:39 | -33.68261 | -78.40549 | 8836 ft | 223 kts | 270° |
| 2026-04-23 23:40 | -33.68198 | -78.42395 | 8588 ft | 220 kts | 270° |
| 2026-04-23 23:40 | -33.68132 | -78.44228 | 8339 ft | 217 kts | 270° |
| 2026-04-23 23:40 | -33.68066 | -78.46027 | 8091 ft | 216 kts | 270° |
| 2026-04-23 23:40 | -33.68000 | -78.47835 | 7839 ft | 215 kts | 270° |
| 2026-04-23 23:41 | -33.67933 | -78.49616 | 7589 ft | 214 kts | 270° |
| 2026-04-23 23:41 | -33.67867 | -78.51393 | 7339 ft | 214 kts | 270° |
| 2026-04-23 23:41 | -33.67802 | -78.53178 | 7086 ft | 213 kts | 270° |
| 2026-04-23 23:41 | -33.67736 | -78.54922 | 6840 ft | 212 kts | 270° |
| 2026-04-23 23:42 | -33.67666 | -78.56691 | 6590 ft | 212 kts | 269° |
| 2026-04-23 23:42 | -33.67589 | -78.58463 | 6338 ft | 211 kts | 270° |
| 2026-04-23 23:42 | -33.67512 | -78.60207 | 6091 ft | 211 kts | 269° |
| 2026-04-23 23:42 | -33.67430 | -78.61983 | 5839 ft | 211 kts | 270° |
| 2026-04-23 23:43 | -33.67118 | -78.63685 | 5583 ft | 215 kts | 288° |
| 2026-04-23 23:43 | -33.66479 | -78.65327 | 5329 ft | 216 kts | 294° |
| 2026-04-23 23:43 | -33.65780 | -78.66896 | 5086 ft | 216 kts | 293° |
| 2026-04-23 23:43 | -33.65172 | -78.68561 | 4835 ft | 215 kts | 290° |
| 2026-04-23 23:44 | -33.64594 | -78.70199 | 4588 ft | 215 kts | 289° |
| 2026-04-23 23:44 | -33.64015 | -78.71841 | 4333 ft | 215 kts | 289° |
| 2026-04-23 23:44 | -33.63427 | -78.73509 | 4084 ft | 215 kts | 289° |
| 2026-04-23 23:44 | -33.62847 | -78.75152 | 3838 ft | 216 kts | 289° |
| 2026-04-23 23:45 | -33.62264 | -78.76799 | 3603 ft | 215 kts | 289° |
| 2026-04-23 23:45 | -33.61673 | -78.78462 | 3352 ft | 216 kts | 289° |
| 2026-04-23 23:45 | -33.61078 | -78.80120 | 3102 ft | 216 kts | 289° |
| 2026-04-23 23:45 | -33.60484 | -78.81783 | 2849 ft | 216 kts | 289° |
| 2026-04-23 23:46 | -33.59896 | -78.83428 | 2604 ft | 216 kts | 289° |
| 2026-04-23 23:46 | -33.59317 | -78.85081 | 2355 ft | 215 kts | 289° |
| 2026-04-23 23:46 | -33.58747 | -78.86729 | 2108 ft | 214 kts | 289° |
| 2026-04-23 23:46 | -33.58320 | -78.88404 | 2003 ft | 203 kts | 274° |
| 2026-04-23 23:47 | -33.58493 | -78.89979 | 2003 ft | 187 kts | 243° |
| 2026-04-23 23:47 | -33.59085 | -78.91335 | 1990 ft | 178 kts | 238° |
| 2026-04-23 23:47 | -33.59710 | -78.92615 | 1846 ft | 177 kts | 237° |
| 2026-04-23 23:47 | -33.60315 | -78.93835 | 1692 ft | 157 kts | 237° |
| 2026-04-23 23:48 | -33.60817 | -78.94860 | 1559 ft | 127 kts | 237° |
| 2026-04-23 23:48 | -33.61310 | -78.95592 | 1390 ft | 106 kts | 206° |
| 2026-04-23 23:48 | -33.61998 | -78.95659 | 1132 ft | 105 kts | 163° |
| 2026-04-23 23:48 | -33.62677 | -78.95303 | 852 ft | 100 kts | 156° |
| 2026-04-23 23:49 | -33.63726 | -78.94630 | 801 ft | 76 kts | 152° |
| 2026-04-23 23:49 | -33.64215 | -78.94360 | 910 ft | 80 kts | 156° |
| 2026-04-23 23:49 | -33.64740 | -78.94050 | 1074 ft | 88 kts | 153° |
| 2026-04-23 23:50 | -33.65329 | -78.93725 | 854 ft | 95 kts | 156° |
| 2026-04-23 23:50 | -33.65931 | -78.93370 | 518 ft | 94 kts | 148° |
| 2026-04-23 23:50 | -33.66410 | -78.93037 | 391 ft | 51 kts | 156° |
| 2026-04-23 23:50 | -33.66566 | -78.92935 | 384 ft | 6 kts | 141° |
| 2026-04-23 23:51 | -33.66609 | -78.92955 | 380 ft | 5 kts | 240° |
| 2026-04-23 23:51 | -33.66642 | -78.92982 | 376 ft | 6 kts | 157° |
| 2026-04-23 23:51 | -33.66646 | -78.92979 | 375 ft | 0 kts | 145° |